Time;durP1;ratioP1;P1;durP2;ratioP2;P2;SDS_P1;SDS_P2;PMS_P1;PMS_P2;Temp;Humidity;BMP_temperature;BMP_pressure;BME280_temperature;BME280_humidity;BME280_pressure;Samples;Min_cycle;Max_cycle;Signal;HPM_P1;HPM_P2
2022/07/09 00:00:22;;;;;;;;;3.50;3.50;;;;;21.52;48.93;102274.47;5034878;28;45379;-82
2022/07/09 00:02:47;;;;;;;;;5.00;5.00;;;;;21.57;49.00;102286.13;5034746;28;45430;-82
2022/07/09 00:05:13;;;;;;;;;5.00;4.25;;;;;21.82;49.17;102332.84;5036260;28;46191;-81
2022/07/09 00:07:39;;;;;;;;;4.00;4.00;;;;;21.65;49.02;102300.50;5051792;28;45883;-82
2022/07/09 00:10:05;;;;;;;;;6.00;6.00;;;;;21.62;49.21;102296.03;5036271;28;45470;-85
2022/07/09 00:12:30;;;;;;;;;5.75;5.00;;;;;21.42;49.40;102268.06;5036301;28;45553;-85
2022/07/09 00:14:55;;;;;;;;;5.00;5.00;;;;;21.45;49.78;102281.50;5034710;28;47530;-84
2022/07/09 00:17:21;;;;;;;;;5.00;5.00;;;;;21.50;49.53;102298.53;5034425;28;45334;-85
2022/07/09 00:19:46;;;;;;;;;5.00;5.00;;;;;21.57;49.59;102318.22;5034992;28;45272;-83
2022/07/09 00:22:12;;;;;;;;;5.25;4.00;;;;;21.51;49.64;102312.78;5051534;28;45474;-82
2022/07/09 00:24:37;;;;;;;;;7.00;6.25;;;;;21.37;49.43;102294.75;5036031;28;46427;-85
2022/07/09 00:27:02;;;;;;;;;6.00;6.00;;;;;21.57;49.37;102310.19;5036045;28;45367;-83
2022/07/09 00:29:28;;;;;;;;;5.00;5.00;;;;;21.41;49.71;102279.66;5036016;28;45325;-82
2022/07/09 00:31:53;;;;;;;;;6.50;6.00;;;;;21.58;50.04;102312.91;5034152;28;45230;-82
2022/07/09 00:34:18;;;;;;;;;6.00;5.67;;;;;21.48;50.12;102296.72;5035279;28;53242;-82
2022/07/09 00:36:44;;;;;;;;;6.75;6.00;;;;;21.49;49.63;102304.75;5035781;28;45308;-84
2022/07/09 00:39:09;;;;;;;;;6.00;6.00;;;;;21.33;50.16;102294.72;5035784;28;45309;-83
2022/07/09 00:41:34;;;;;;;;;6.50;5.75;;;;;21.29;50.26;102290.16;5037312;28;45213;-84
2022/07/09 00:44:00;;;;;;;;;4.75;4.00;;;;;21.32;50.53;102304.50;5057869;28;45931;-83
2022/07/09 00:46:25;;;;;;;;;7.00;7.00;;;;;21.07;50.38;102267.53;5075648;28;45374;-82
2022/07/09 00:48:50;;;;;;;;;5.50;5.50;;;;;21.07;50.79;102271.09;5075980;27;45442;-85
2022/07/09 00:51:17;;;;;;;;;6.25;6.00;;;;;21.20;50.90;102282.88;5076012;28;45328;-83
2022/07/09 00:53:45;;;;;;;;;8.50;7.75;;;;;21.40;50.74;102322.44;5074808;27;47292;-82
2022/07/09 00:56:11;;;;;;;;;6.50;6.00;;;;;21.24;50.65;102298.09;5075828;28;45387;-82
2022/07/09 00:58:38;;;;;;;;;7.00;7.00;;;;;21.34;51.39;102309.88;5057751;28;45407;-83
2022/07/09 01:01:03;;;;;;;;;8.00;7.75;;;;;21.22;51.04;102304.28;5074361;27;45652;-81
2022/07/09 01:03:29;;;;;;;;;6.75;6.75;;;;;21.28;51.23;102309.72;5075808;27;45329;-85
2022/07/09 01:05:56;;;;;;;;;9.25;8.50;;;;;21.08;51.32;102285.34;5074393;27;45315;-84
2022/07/09 01:08:21;;;;;;;;;7.25;7.25;;;;;21.10;51.50;102284.50;5074308;27;45469;-82
2022/07/09 01:10:51;;;;;;;;;11.00;8.75;;;;;20.99;51.44;102270.09;5074647;28;45418;-82
2022/07/09 01:13:16;;;;;;;;;11.00;10.75;;;;;20.87;51.73;102261.84;5073750;28;46166;-83
2022/07/09 01:15:41;;;;;;;;;10.00;8.75;;;;;20.97;51.51;102282.50;5074914;28;45489;-84
2022/07/09 01:18:11;;;;;;;;;7.50;7.25;;;;;21.05;52.19;102304.94;5075720;28;45473;-82
2022/07/09 01:20:36;;;;;;;;;9.00;7.75;;;;;20.89;52.01;102273.50;5075336;28;45484;-82
2022/07/09 01:23:01;;;;;;;;;9.25;8.50;;;;;20.87;51.85;102268.09;5057004;27;45365;-83
2022/07/09 01:25:39;;;;;;;;;8.25;8.00;;;;;20.96;52.28;102291.41;5073774;28;45560;-83
2022/07/09 01:28:06;;;;;;;;;8.00;7.00;;;;;20.79;52.14;102267.09;5075183;28;45412;-82
2022/07/09 01:30:33;;;;;;;;;9.00;8.00;;;;;20.97;52.74;102300.31;5073470;27;45321;-82
2022/07/09 01:32:59;;;;;;;;;9.00;8.00;;;;;20.95;52.84;102302.97;5075296;28;45420;-82
2022/07/09 01:35:25;;;;;;;;;7.50;7.50;;;;;20.87;52.57;102289.47;5074952;28;45370;-82
2022/07/09 01:37:51;;;;;;;;;9.00;8.25;;;;;20.79;53.08;102268.88;5075539;28;45655;-82
2022/07/09 01:40:17;;;;;;;;;9.00;7.25;;;;;20.71;53.01;102262.47;5073748;27;45585;-81
2022/07/09 01:42:42;;;;;;;;;6.25;6.25;;;;;20.83;53.08;102290.28;5074640;28;45687;-81
2022/07/09 01:45:08;;;;;;;;;8.75;8.75;;;;;20.49;53.49;102238.06;5056756;28;45613;-82
2022/07/09 01:47:33;;;;;;;;;7.50;7.50;;;;;20.64;53.27;102264.16;5073184;28;45420;-82
2022/07/09 01:49:59;;;;;;;;;10.50;10.00;;;;;20.68;53.35;102279.34;5074884;28;45277;-82
2022/07/09 01:52:25;;;;;;;;;9.00;8.75;;;;;20.39;53.75;102225.34;5074640;28;45489;-81
2022/07/09 01:54:50;;;;;;;;;11.50;10.25;;;;;20.51;53.49;102257.69;5074644;27;46062;-82
2022/07/09 01:57:16;;;;;;;;;10.00;9.25;;;;;20.42;53.57;102245.91;5056483;28;45294;-82
2022/07/09 01:59:41;;;;;;;;;10.00;8.75;;;;;20.48;53.75;102248.72;5056340;28;45467;-81
2022/07/09 02:02:06;;;;;;;;;9.25;9.00;;;;;20.68;54.19;102289.13;5074217;28;46195;-82
2022/07/09 02:04:32;;;;;;;;;9.00;8.50;;;;;20.40;53.97;102229.84;5056247;28;45318;-82
2022/07/09 02:06:57;;;;;;;;;9.00;9.00;;;;;20.51;53.94;102247.00;5074673;28;45339;-82
2022/07/09 02:09:22;;;;;;;;;9.50;9.00;;;;;20.38;53.76;102233.34;5074440;28;45278;-82
2022/07/09 02:11:49;;;;;;;;;10.00;9.00;;;;;20.48;54.05;102248.72;5074825;28;45667;-82
2022/07/09 02:14:15;;;;;;;;;10.25;10.25;;;;;20.57;54.01;102265.81;5074476;28;45325;-82
2022/07/09 02:16:40;;;;;;;;;9.75;9.25;;;;;20.51;54.33;102259.47;5074212;28;45304;-82
2022/07/09 02:19:06;;;;;;;;;8.25;8.00;;;;;20.54;54.34;102265.75;5056265;28;45575;-82
2022/07/09 02:21:33;;;;;;;;;10.00;10.00;;;;;20.51;54.14;102263.03;5074196;28;45467;-81
2022/07/09 02:23:58;;;;;;;;;9.75;9.25;;;;;20.38;54.55;102236.91;5072511;28;46156;-82
2022/07/09 02:26:28;;;;;;;;;10.00;9.75;;;;;20.48;54.39;102259.38;5074124;28;45299;-82
2022/07/09 02:28:55;;;;;;;;;8.25;8.25;;;;;20.30;54.55;102235.91;5073000;28;45505;-82
2022/07/09 02:31:20;;;;;;;;;9.00;8.25;;;;;20.29;54.61;102245.66;5073682;28;46392;-82
2022/07/09 02:33:45;;;;;;;;;9.75;9.50;;;;;20.09;54.63;102209.69;5074276;28;45466;-82
2022/07/09 02:36:11;;;;;;;;;9.75;8.75;;;;;20.11;55.14;102223.97;5074420;28;45469;-84
2022/07/09 02:38:36;;;;;;;;;8.25;7.75;;;;;20.13;55.07;102240.00;5074298;28;45498;-84
2022/07/09 02:41:02;;;;;;;;;9.75;9.75;;;;;19.98;55.17;102208.59;5074258;28;46079;-82
2022/07/09 02:43:27;;;;;;;;;10.75;10.25;;;;;20.05;55.15;102230.09;5074023;28;45473;-82
2022/07/09 02:45:55;;;;;;;;;10.25;8.75;;;;;20.16;55.49;102251.66;5073768;27;45380;-83
2022/07/09 02:48:21;;;;;;;;;10.50;9.25;;;;;20.03;55.18;102231.81;5074260;28;45239;-85
2022/07/09 02:50:46;;;;;;;;;8.75;8.75;;;;;19.97;55.85;102231.72;5074086;28;46134;-83
2022/07/09 02:53:12;;;;;;;;;7.75;7.75;;;;;19.94;56.11;102218.28;5074109;28;45409;-84
2022/07/09 02:55:37;;;;;;;;;10.50;9.75;;;;;19.87;55.93;102210.16;5055711;28;45245;-84
2022/07/09 02:58:02;;;;;;;;;7.25;7.00;;;;;20.04;56.01;102241.63;5074116;28;45470;-83
2022/07/09 03:00:28;;;;;;;;;10.00;9.00;;;;;19.93;56.12;102221.84;5073135;28;45425;-82
2022/07/09 03:02:53;;;;;;;;;9.00;9.00;;;;;19.90;56.26;102216.47;5074025;28;45315;-82
2022/07/09 03:05:18;;;;;;;;;8.00;7.75;;;;;19.77;56.24;102193.97;5073781;28;45538;-84
2022/07/09 03:07:44;;;;;;;;;9.75;9.50;;;;;19.83;56.25;102212.75;5055828;28;45312;-82
2022/07/09 03:10:09;;;;;;;;;8.00;8.00;;;;;19.94;56.18;102233.41;5073870;28;46319;-83
2022/07/09 03:12:34;;;;;;;;;8.50;7.75;;;;;19.89;56.20;102232.41;5073827;28;45387;-85
2022/07/09 03:15:00;;;;;;;;;8.50;8.25;;;;;20.01;56.35;102256.69;5074119;28;45433;-83
2022/07/09 03:17:26;;;;;;;;;7.50;7.00;;;;;19.78;55.64;102211.75;5073518;28;45286;-84
2022/07/09 03:19:52;;;;;;;;;6.00;6.00;;;;;19.88;55.88;102223.53;5072529;28;47960;-83
2022/07/09 03:22:17;;;;;;;;;6.00;6.00;;;;;19.94;55.57;102234.31;5055441;28;45462;-83
2022/07/09 03:24:42;;;;;;;;;8.50;8.00;;;;;19.88;56.58;102223.53;5073764;28;45346;-82
2022/07/09 03:27:08;;;;;;;;;7.25;7.00;;;;;19.72;56.20;102203.63;5055899;28;45499;-85
2022/07/09 03:29:33;;;;;;;;;8.00;7.25;;;;;19.76;56.34;102215.28;5073534;28;45531;-82
2022/07/09 03:32:01;;;;;;;;;6.25;6.00;;;;;19.79;56.70;102236.66;5054852;28;48022;-83
2022/07/09 03:34:27;;;;;;;;;9.00;8.00;;;;;19.74;56.75;102238.34;5074688;28;45320;-85
2022/07/09 03:36:52;;;;;;;;;7.00;6.75;;;;;19.71;56.67;102247.19;5077056;27;45542;-85
2022/07/09 03:39:17;;;;;;;;;7.75;7.00;;;;;19.72;57.00;102256.09;5076935;27;46531;-84
2022/07/09 03:41:43;;;;;;;;;7.33;7.33;;;;;19.65;56.44;102246.16;5058672;28;46990;-82
2022/07/09 03:44:08;;;;;;;;;7.00;7.00;;;;;19.61;56.89;102252.31;5058994;28;45518;-83
2022/07/09 03:46:34;;;;;;;;;7.75;6.50;;;;;19.52;57.00;102236.97;5076711;28;45476;-82
2022/07/09 03:48:59;;;;;;;;;7.00;7.00;;;;;19.51;56.62;102225.41;5058559;28;47966;-82
2022/07/09 03:51:24;;;;;;;;;7.00;7.00;;;;;19.65;57.07;102249.72;5058759;28;45613;-82
2022/07/09 03:53:50;;;;;;;;;5.50;5.00;;;;;19.72;57.10;102267.66;5076999;28;45465;-84
2022/07/09 03:56:15;;;;;;;;;7.00;7.00;;;;;19.71;56.77;102278.31;5075517;27;45585;-84
2022/07/09 03:58:43;;;;;;;;;7.00;7.00;;;;;19.39;57.21;102227.78;5076713;28;46292;-84
2022/07/09 04:01:08;;;;;;;;;8.00;7.00;;;;;19.48;56.70;102243.09;5057916;27;45953;-83
2022/07/09 04:03:33;;;;;;;;;8.00;8.00;;;;;19.48;57.02;102243.09;5058835;28;45334;-84
2022/07/09 04:05:59;;;;;;;;;7.00;7.00;;;;;19.51;57.20;102244.06;5076814;27;45436;-82
2022/07/09 04:08:24;;;;;;;;;5.00;5.00;;;;;19.53;57.34;102261.00;5076521;27;45389;-84
2022/07/09 04:10:49;;;;;;;;;7.00;7.00;;;;;19.44;57.30;102252.78;5058240;28;45668;-82
2022/07/09 04:13:15;;;;;;;;;7.00;7.00;;;;;19.42;58.08;102262.53;5076490;28;46006;-85
2022/07/09 04:15:40;;;;;;;;;8.00;7.00;;;;;19.50;57.74;102284.91;5057932;28;45670;-84
2022/07/09 04:18:05;;;;;;;;;7.00;7.00;;;;;19.33;57.64;102243.66;5057841;28;51542;-83
2022/07/09 04:20:30;;;;;;;;;8.50;7.00;;;;;19.37;57.85;102256.19;5075063;27;45423;-84
2022/07/09 04:22:56;;;;;;;;;7.25;7.00;;;;;19.31;57.44;102251.63;5076927;28;45429;-84
2022/07/09 04:25:21;;;;;;;;;7.50;6.75;;;;;19.23;57.77;102237.22;5076767;27;45255;-82
2022/07/09 04:27:47;;;;;;;;;6.25;6.25;;;;;19.42;57.51;102265.19;5076382;28;45456;-82
2022/07/09 04:30:12;;;;;;;;;7.75;7.00;;;;;19.32;57.13;102242.75;5076373;27;45549;-81
2022/07/09 04:32:37;;;;;;;;;8.50;8.00;;;;;19.41;57.89;102257.13;5076106;28;45446;-84
2022/07/09 04:35:03;;;;;;;;;10.50;9.00;;;;;19.56;57.84;102289.50;5057880;28;45408;-85
2022/07/09 04:37:29;;;;;;;;;8.00;8.00;;;;;19.47;57.68;102276.88;5057833;28;48300;-82
2022/07/09 04:39:54;;;;;;;;;7.25;7.25;;;;;19.36;58.08;102254.41;5076225;28;45441;-82
2022/07/09 04:42:20;;;;;;;;;8.25;7.50;;;;;19.36;58.35;102257.06;5076107;28;45307;-85
2022/07/09 04:44:45;;;;;;;;;8.00;8.00;;;;;19.41;58.59;102274.06;5076398;27;45302;-83
2022/07/09 04:47:11;;;;;;;;;6.25;6.25;;;;;19.46;58.12;102277.75;5074413;28;45589;-83
2022/07/09 04:49:36;;;;;;;;;6.00;5.00;;;;;19.34;58.29;102256.09;5076123;28;45486;-85
2022/07/09 04:52:02;;;;;;;;;8.25;7.75;;;;;19.14;58.53;102220.09;5076200;27;45377;-83
2022/07/09 04:54:27;;;;;;;;;7.00;6.00;;;;;19.44;58.44;102273.22;5076476;28;45504;-83
2022/07/09 04:56:52;;;;;;;;;8.00;7.00;;;;;19.32;58.09;102244.53;5057307;28;47056;-84
2022/07/09 04:59:17;;;;;;;;;9.00;9.00;;;;;19.26;59.22;102236.38;5075880;27;45361;-82
2022/07/09 05:01:43;;;;;;;;;8.50;8.00;;;;;19.22;58.85;102240.75;5075727;28;45355;-84
2022/07/09 05:04:08;;;;;;;;;7.33;7.33;;;;;19.35;58.77;102260.56;5057641;28;45471;-83
2022/07/09 05:06:33;;;;;;;;;7.50;7.50;;;;;19.32;59.25;102258.75;5074205;28;47414;-82
2022/07/09 05:08:59;;;;;;;;;9.00;9.00;;;;;19.45;59.31;102270.56;5075350;27;50666;-84
2022/07/09 05:11:25;;;;;;;;;8.25;8.00;;;;;19.38;58.84;102259.75;5075791;28;45327;-84
2022/07/09 05:13:50;;;;;;;;;10.25;8.50;;;;;19.37;58.69;102250.84;5075422;27;45378;-82
2022/07/09 05:16:16;;;;;;;;;7.50;7.50;;;;;19.42;59.51;102249.19;5074741;28;46619;-86
2022/07/09 05:18:41;;;;;;;;;7.25;7.25;;;;;19.59;59.03;102277.16;5075591;27;45303;-83
2022/07/09 05:21:07;;;;;;;;;9.50;9.00;;;;;19.48;59.48;102265.31;5075774;28;45399;-84
2022/07/09 05:23:32;;;;;;;;;8.50;7.50;;;;;19.50;59.34;102265.34;5075646;28;45410;-82
2022/07/09 05:25:57;;;;;;;;;8.25;8.00;;;;;19.59;59.15;102273.56;5075272;28;48718;-84
2022/07/09 05:28:23;;;;;;;;;8.00;8.00;;;;;19.55;59.37;102256.56;5075305;28;45246;-83
2022/07/09 05:30:48;;;;;;;;;8.00;7.75;;;;;19.62;59.05;102262.09;5074756;28;45280;-83
2022/07/09 05:33:13;;;;;;;;;7.75;7.50;;;;;19.71;58.34;102273.88;5057127;28;45295;-82
2022/07/09 05:35:39;;;;;;;;;7.33;7.33;;;;;19.76;59.14;102263.31;5056607;28;53203;-83
2022/07/09 05:38:04;;;;;;;;;9.50;9.00;;;;;19.77;58.82;102262.44;5075296;28;45284;-83
2022/07/09 05:40:29;;;;;;;;;6.67;6.67;;;;;19.93;58.84;102285.88;5056904;28;45411;-83
2022/07/09 05:42:55;;;;;;;;;8.75;8.75;;;;;19.89;58.34;102265.34;5074762;27;48558;-82
2022/07/09 05:45:20;;;;;;;;;8.00;8.00;;;;;19.91;58.82;102250.28;5056875;28;48606;-83
2022/07/09 05:47:45;;;;;;;;;9.00;8.75;;;;;20.01;58.22;102262.03;5056809;28;45340;-82
2022/07/09 05:50:11;;;;;;;;;9.75;9.50;;;;;20.06;57.92;102258.59;5075246;28;45479;-82
2022/07/09 05:52:37;;;;;;;;;8.75;8.75;;;;;20.20;57.58;102265.97;5073654;28;45335;-81
2022/07/09 05:55:03;;;;;;;;;8.00;8.00;;;;;20.24;57.30;102257.13;5075061;28;46644;-84
2022/07/09 05:57:28;;;;;;;;;9.00;9.00;;;;;20.41;57.38;102271.72;5056086;28;45439;-82
2022/07/09 05:59:54;;;;;;;;;10.50;9.75;;;;;20.47;57.67;102277.19;5075029;28;45393;-84
2022/07/09 06:02:19;;;;;;;;;8.25;8.25;;;;;20.53;56.46;102268.38;5074410;28;45603;-82
2022/07/09 06:04:45;;;;;;;;;7.00;7.00;;;;;20.63;56.22;102273.00;5074677;28;46697;-83
2022/07/09 06:07:10;;;;;;;;;9.00;9.00;;;;;20.64;56.51;102265.91;5074861;28;45497;-84
2022/07/09 06:09:36;;;;;;;;;8.00;8.00;;;;;20.70;55.83;102263.34;5074854;28;45446;-82
2022/07/09 06:12:02;;;;;;;;;9.75;9.50;;;;;20.71;56.35;102258.03;5074642;28;45360;-81
2022/07/09 06:14:27;;;;;;;;;9.25;8.25;;;;;20.82;56.11;102272.47;5074699;28;46493;-82
2022/07/09 06:16:55;;;;;;;;;10.25;9.50;;;;;20.72;56.26;102248.25;5055958;28;45511;-82
2022/07/09 06:19:20;;;;;;;;;10.00;9.25;;;;;20.89;55.54;102260.13;5074632;28;45374;-83
2022/07/09 06:21:45;;;;;;;;;9.75;9.75;;;;;20.98;55.58;102267.38;5074578;27;45486;-82
2022/07/09 06:24:11;;;;;;;;;9.67;9.00;;;;;20.89;55.66;102246.75;5074309;28;52097;-84
2022/07/09 06:26:36;;;;;;;;;12.00;10.75;;;;;20.98;55.34;102256.66;5074142;28;45494;-82
2022/07/09 06:29:02;;;;;;;;;9.25;8.00;;;;;20.96;55.42;102248.66;5056031;28;45442;-83
2022/07/09 06:31:27;;;;;;;;;10.00;10.00;;;;;20.97;55.87;102246.88;5074251;28;45696;-82
2022/07/09 06:33:52;;;;;;;;;8.50;8.50;;;;;21.17;55.73;102276.59;5074260;28;46256;-82
2022/07/09 06:36:18;;;;;;;;;10.50;10.25;;;;;20.98;55.58;102232.63;5056154;28;45481;-82
2022/07/09 06:41:27;;;;;;;;;10.50;9.00;;;;;21.33;55.45;102286.69;5074783;27;45476;-82
2022/07/09 06:43:52;;;;;;;;;9.00;9.00;;;;;21.30;54.98;102271.47;5055598;28;46888;-83
2022/07/09 06:46:19;;;;;;;;;10.25;9.75;;;;;21.22;55.41;102248.13;5073575;28;46117;-82
2022/07/09 06:48:44;;;;;;;;;8.25;8.00;;;;;21.36;55.16;102258.19;5055715;28;45494;-82
2022/07/09 06:51:09;;;;;;;;;9.75;9.25;;;;;21.44;55.90;102262.78;5055768;28;45532;-83
2022/07/09 06:53:35;;;;;;;;;10.50;9.25;;;;;21.35;54.85;102231.44;5073913;28;46408;-84
2022/07/09 06:56:01;;;;;;;;;10.25;10.25;;;;;21.34;54.61;102235.88;5073997;28;45434;-82
2022/07/09 06:58:26;;;;;;;;;9.75;9.00;;;;;21.47;55.08;102244.06;5074322;28;45553;-83
2022/07/09 07:00:51;;;;;;;;;9.00;9.00;;;;;21.58;54.24;102254.06;5073257;28;46037;-84
2022/07/09 07:03:16;;;;;;;;;10.00;9.50;;;;;21.74;54.35;102278.34;5073685;28;46209;-83
2022/07/09 07:05:42;;;;;;;;;13.67;12.00;;;;;21.77;54.16;102271.25;5072183;28;49134;-84
2022/07/09 07:08:07;;;;;;;;;12.67;11.33;;;;;21.66;54.13;102239.88;5073610;28;49199;-85
2022/07/09 07:10:32;;;;;;;;;11.00;10.00;;;;;21.60;54.13;102220.19;5072874;28;45311;-83
2022/07/09 07:12:58;;;;;;;;;8.25;8.25;;;;;21.65;54.11;102220.25;5055524;28;48331;-83
2022/07/09 07:15:23;;;;;;;;;11.00;10.75;;;;;21.98;53.81;102269.72;5073516;28;45424;-83
2022/07/09 07:17:48;;;;;;;;;12.00;11.00;;;;;21.89;54.09;102252.66;5073834;28;45355;-83
2022/07/09 07:20:14;;;;;;;;;11.75;11.75;;;;;22.07;53.28;102273.41;5073664;28;45513;-83
2022/07/09 07:22:39;;;;;;;;;10.50;10.50;;;;;22.00;54.05;102255.47;5073436;28;46380;-82
2022/07/09 07:25:05;;;;;;;;;9.50;9.50;;;;;21.88;53.83;102226.78;5073431;28;45314;-83
2022/07/09 07:27:31;;;;;;;;;9.50;9.00;;;;;22.06;53.21;102258.19;5073598;27;45295;-82
2022/07/09 07:29:56;;;;;;;;;9.50;9.25;;;;;21.99;53.52;102239.38;5055538;28;45554;-83
2022/07/09 07:32:21;;;;;;;;;9.00;9.00;;;;;22.20;53.11;102262.84;5054745;28;47312;-83
2022/07/09 07:34:47;;;;;;;;;11.00;10.75;;;;;22.11;53.48;102235.06;5055209;28;45621;-82
2022/07/09 07:37:12;;;;;;;;;9.25;8.25;;;;;22.35;53.47;102268.38;5055179;28;45397;-82
2022/07/09 07:39:37;;;;;;;;;8.00;8.00;;;;;22.26;53.15;102253.09;5073495;28;45422;-83
2022/07/09 07:42:03;;;;;;;;;9.75;9.00;;;;;22.33;53.29;102248.72;5054618;28;46827;-82
2022/07/09 07:44:28;;;;;;;;;9.25;9.25;;;;;22.50;53.35;102283.69;5073209;28;45334;-83
2022/07/09 07:46:54;;;;;;;;;9.00;8.75;;;;;22.40;53.08;102250.56;5054936;28;45368;-85
2022/07/09 07:49:19;;;;;;;;;9.00;9.00;;;;;22.42;52.60;102248.81;5073358;28;45300;-83
2022/07/09 07:51:46;;;;;;;;;10.50;10.00;;;;;22.37;52.42;102234.47;5073015;27;45489;-85
2022/07/09 07:54:11;;;;;;;;;9.25;8.75;;;;;22.56;52.28;102268.59;5073525;28;45403;-85
2022/07/09 07:56:39;;;;;;;;;9.00;9.00;;;;;22.59;52.66;102270.41;5054989;28;45375;-83
2022/07/09 07:59:04;;;;;;;;;7.50;7.50;;;;;22.58;52.41;102256.09;5055102;28;45546;-82
2022/07/09 08:01:30;;;;;;;;;7.50;7.50;;;;;22.65;52.25;102263.28;5072394;28;46344;-82
2022/07/09 08:03:55;;;;;;;;;8.50;8.25;;;;;22.71;51.82;102264.25;5073037;28;45421;-85
2022/07/09 08:06:22;;;;;;;;;10.00;8.00;;;;;22.61;51.53;102237.38;5071770;28;45333;-82
2022/07/09 08:08:48;;;;;;;;;8.25;8.25;;;;;22.77;51.57;102250.91;5055235;28;45584;-85
2022/07/09 08:11:14;;;;;;;;;9.00;9.00;;;;;22.67;51.13;102226.72;5073298;28;46130;-84
2022/07/09 08:13:39;;;;;;;;;8.00;8.00;;;;;22.76;51.95;102238.38;5054677;28;45418;-83
2022/07/09 08:16:05;;;;;;;;;8.00;8.00;;;;;22.75;51.96;102233.91;5072718;28;45394;-84
2022/07/09 08:18:31;;;;;;;;;8.50;7.50;;;;;22.95;51.24;102260.91;5054657;28;45483;-84
2022/07/09 08:20:56;;;;;;;;;9.75;9.00;;;;;22.79;51.16;102239.28;5074095;28;46345;-82
2022/07/09 08:23:22;;;;;;;;;7.25;7.25;;;;;22.89;50.78;102245.66;5076343;27;45368;-84
2022/07/09 08:25:47;;;;;;;;;7.00;7.00;;;;;22.96;50.60;102242.16;5076982;28;45574;-82
2022/07/09 08:28:12;;;;;;;;;8.00;7.25;;;;;22.78;51.02;102201.75;5076340;28;45546;-83
2022/07/09 08:30:38;;;;;;;;;7.75;7.00;;;;;23.03;50.54;102240.41;5076040;28;48140;-84
2022/07/09 08:33:03;;;;;;;;;7.50;6.50;;;;;22.96;50.40;102214.47;5075843;27;45479;-83
2022/07/09 08:35:29;;;;;;;;;7.00;6.00;;;;;22.96;50.32;102209.97;5076214;28;45317;-84
2022/07/09 08:37:54;;;;;;;;;5.50;5.50;;;;;23.07;50.44;102218.09;5076220;27;45515;-84
2022/07/09 08:40:20;;;;;;;;;7.25;7.00;;;;;23.19;49.94;102236.94;5057728;28;46211;-83
2022/07/09 08:42:47;;;;;;;;;8.00;7.50;;;;;23.31;49.45;102252.22;5075946;28;45342;-84
2022/07/09 08:45:16;;;;;;;;;7.00;7.00;;;;;23.26;49.16;102233.41;5076262;28;45411;-82
2022/07/09 08:47:42;;;;;;;;;7.50;6.50;;;;;23.24;49.34;102223.56;5075880;28;45343;-82
2022/07/09 08:50:08;;;;;;;;;4.00;3.25;;;;;23.16;49.19;102200.28;5057562;28;48258;-83
2022/07/09 08:52:35;;;;;;;;;6.00;6.00;;;;;23.47;48.59;102238.00;5075827;28;45943;-85
2022/07/09 08:55:01;;;;;;;;;5.25;5.25;;;;;23.46;48.63;102236.22;5075990;28;45462;-83
2022/07/09 08:57:27;;;;;;;;;6.00;6.00;;;;;23.37;48.45;102207.53;5075745;28;45484;-83
2022/07/09 08:59:52;;;;;;;;;7.00;5.75;;;;;23.44;48.73;102209.34;5057151;28;48120;-84
2022/07/09 09:02:19;;;;;;;;;5.25;5.25;;;;;23.55;48.60;102230.00;5073945;28;45644;-84
2022/07/09 09:04:45;;;;;;;;;9.00;7.50;;;;;23.62;47.56;102235.38;5075876;27;45451;-84
2022/07/09 09:07:21;;;;;;;;;7.00;7.00;;;;;23.59;47.78;102215.69;5076008;28;45636;-84
2022/07/09 09:09:47;;;;;;;;;7.75;7.50;;;;;23.67;48.59;102217.53;5075704;28;46215;-83
2022/07/09 09:12:13;;;;;;;;;5.75;5.75;;;;;23.61;47.87;102200.50;5075582;28;45438;-84
2022/07/09 09:14:38;;;;;;;;;5.50;5.50;;;;;23.66;47.63;102198.75;5076107;28;45300;-83
2022/07/09 09:17:11;;;;;;;;;6.00;6.00;;;;;23.72;47.76;102200.56;5075006;28;45264;-83
2022/07/09 09:19:37;;;;;;;;;6.00;5.00;;;;;23.94;47.13;102232.88;5075532;28;45439;-83
2022/07/09 09:22:03;;;;;;;;;7.75;6.25;;;;;23.86;46.70;102201.50;5057286;28;45725;-84
2022/07/09 09:24:29;;;;;;;;;7.25;7.00;;;;;24.05;47.26;102229.31;5057374;28;45366;-83
2022/07/09 09:27:02;;;;;;;;;6.00;6.00;;;;;24.09;47.01;102223.06;5075824;28;45326;-84
2022/07/09 09:29:27;;;;;;;;;4.75;4.75;;;;;23.84;46.44;102169.28;5075247;28;46693;-83
2022/07/09 09:31:54;;;;;;;;;6.25;6.25;;;;;24.18;46.72;102220.38;5073793;28;45410;-82
2022/07/09 09:34:20;;;;;;;;;5.25;4.25;;;;;24.26;46.53;102229.34;5075546;28;45345;-83
2022/07/09 09:36:51;;;;;;;;;6.50;5.00;;;;;24.32;45.82;102228.47;5075373;28;45527;-84
2022/07/09 09:39:28;;;;;;;;;5.00;5.00;;;;;24.32;46.69;102217.72;5075176;28;45672;-82
2022/07/09 09:41:55;;;;;;;;;5.25;5.25;;;;;24.42;45.97;102223.13;5073728;28;45944;-82
2022/07/09 09:44:29;;;;;;;;;6.00;6.00;;;;;24.36;46.09;102208.81;5073774;27;45406;-83
2022/07/09 09:46:55;;;;;;;;;5.00;5.00;;;;;24.47;46.17;102224.94;5074879;28;45414;-83
2022/07/09 09:49:22;;;;;;;;;6.00;5.75;;;;;24.34;45.94;102189.06;5056775;28;46304;-84
2022/07/09 09:51:56;;;;;;;;;5.75;5.75;;;;;24.60;45.96;102224.06;5074814;28;45335;-84
2022/07/09 09:54:22;;;;;;;;;4.75;4.75;;;;;24.38;45.88;102174.75;5073807;28;45347;-83
2022/07/09 09:56:49;;;;;;;;;6.50;6.50;;;;;24.71;45.45;102225.81;5056479;28;45392;-84
2022/07/09 09:59:15;;;;;;;;;5.00;5.00;;;;;24.64;45.30;102207.91;5074967;28;46356;-83
2022/07/09 10:01:42;;;;;;;;;6.25;5.50;;;;;24.62;45.56;102198.94;5074750;28;45339;-82
2022/07/09 10:04:09;;;;;;;;;5.50;5.25;;;;;24.87;46.07;102236.56;5074510;28;45427;-83
2022/07/09 10:06:36;;;;;;;;;5.00;5.00;;;;;24.82;45.06;102227.63;5074750;28;45462;-84
2022/07/09 10:09:03;;;;;;;;;5.00;5.00;;;;;24.89;44.67;102210.59;5073255;28;47163;-82
2022/07/09 10:11:38;;;;;;;;;8.75;8.00;;;;;24.94;44.84;102206.09;5074500;28;45877;-83
2022/07/09 10:14:04;;;;;;;;;5.00;4.50;;;;;24.89;44.28;102191.75;5074874;27;45241;-83
2022/07/09 10:16:34;;;;;;;;;8.25;7.00;;;;;24.88;44.90;102179.22;5056293;28;45301;-83
2022/07/09 10:18:59;;;;;;;;;7.00;7.00;;;;;25.05;44.77;102190.81;5072726;27;47519;-82
2022/07/09 10:21:35;;;;;;;;;6.50;6.00;;;;;25.24;44.63;102215.94;5056095;28;45434;-82
2022/07/09 10:24:01;;;;;;;;;7.00;6.00;;;;;25.28;44.28;102203.38;5074712;28;46036;-83
2022/07/09 10:26:42;;;;;;;;;7.00;6.00;;;;;25.26;44.58;102187.22;5074581;28;45592;-83
2022/07/09 10:29:25;;;;;;;;;8.25;8.00;;;;;25.47;44.05;102206.00;5056198;28;47147;-84
2022/07/09 10:31:51;;;;;;;;;7.00;7.00;;;;;25.53;44.11;102212.25;5073890;28;45873;-84
2022/07/09 10:34:47;;;;;;;;;7.25;7.00;;;;;25.61;44.02;102211.31;5074768;27;45466;-84
2022/07/09 10:37:13;;;;;;;;;6.50;6.50;;;;;25.51;43.84;102179.94;5074300;28;45342;-83
2022/07/09 10:39:38;;;;;;;;;6.50;6.50;;;;;25.69;43.77;102208.59;5072791;28;47181;-83
2022/07/09 10:42:06;;;;;;;;;7.75;6.25;;;;;25.67;43.65;102191.56;5055965;28;46106;-84
2022/07/09 10:44:39;;;;;;;;;8.00;8.00;;;;;25.70;43.28;102184.31;5072842;27;45449;-85
2022/07/09 10:47:05;;;;;;;;;7.00;7.00;;;;;25.72;43.71;102187.03;5073813;28;45462;-83
2022/07/09 10:49:33;;;;;;;;;7.00;7.00;;;;;25.72;43.48;102171.78;5074518;28;46687;-85
2022/07/09 10:51:58;;;;;;;;;8.00;8.00;;;;;26.03;43.81;102189.59;5074055;28;45557;-82
2022/07/09 10:54:25;;;;;;;;;6.00;6.00;;;;;26.04;43.35;102156.34;5073902;27;45570;-84
2022/07/09 10:56:51;;;;;;;;;6.75;6.50;;;;;26.16;42.72;102172.44;5074168;28;45450;-82
2022/07/09 10:59:20;;;;;;;;;5.50;5.50;;;;;26.08;43.05;102150.91;5074155;27;46398;-83
2022/07/09 11:01:45;;;;;;;;;5.00;5.00;;;;;26.21;42.53;102159.81;5072555;28;45287;-83
2022/07/09 11:04:14;;;;;;;;;6.25;5.25;;;;;26.21;42.17;102158.00;5074080;28;45461;-84
2022/07/09 11:06:46;;;;;;;;;7.00;7.00;;;;;26.34;42.88;102163.28;5073908;28;45355;-83
2022/07/09 11:09:13;;;;;;;;;10.25;10.25;;;;;26.38;42.89;102155.16;5073907;28;46500;-84
2022/07/09 11:11:42;;;;;;;;;9.25;9.25;;;;;26.39;42.63;102130.00;5072126;28;45962;-84
2022/07/09 11:14:07;;;;;;;;;7.00;7.00;;;;;26.52;42.58;102148.81;5073935;28;45406;-84
2022/07/09 11:16:32;;;;;;;;;6.75;6.25;;;;;26.51;42.55;102128.16;5072170;28;45469;-83
2022/07/09 11:18:58;;;;;;;;;5.00;5.00;;;;;26.72;42.20;102158.50;5073220;28;48251;-84
2022/07/09 11:21:27;;;;;;;;;5.25;5.25;;;;;26.72;41.99;102145.00;5055625;28;46487;-84